Time;durP1;ratioP1;P1;durP2;ratioP2;P2;SDS_P1;SDS_P2;PMS_P1;PMS_P2;Temp;Humidity;BMP_temperature;BMP_pressure;BME280_temperature;BME280_humidity;BME280_pressure;Samples;Min_cycle;Max_cycle;Signal;HPM_P1;HPM_P2
2023/01/07 00:00:50;;;;;;;8.45;6.55;;;11.30;99.90;;;;;;5093719;28;20027;-64
2023/01/07 00:03:15;;;;;;;8.85;6.70;;;11.30;99.90;;;;;;5090516;28;20036;-64
2023/01/07 00:05:42;;;;;;;8.02;6.63;;;11.20;99.90;;;;;;5090288;28;20385;-64
2023/01/07 00:08:08;;;;;;;10.63;6.90;;;11.20;99.90;;;;;;5092554;28;20540;-64
2023/01/07 00:10:34;;;;;;;8.05;6.78;;;11.20;99.90;;;;;;5072979;28;20024;-64
2023/01/07 00:13:00;;;;;;;7.60;6.60;;;11.20;99.90;;;;;;5090081;28;20097;-64
2023/01/07 00:15:25;;;;;;;7.95;6.45;;;11.20;99.90;;;;;;5091559;28;20024;-64
2023/01/07 00:17:51;;;;;;;8.40;6.43;;;11.20;99.90;;;;;;5090871;28;20026;-64
2023/01/07 00:20:16;;;;;;;9.38;7.13;;;11.20;99.90;;;;;;5089955;28;20328;-64
2023/01/07 00:22:42;;;;;;;8.18;6.18;;;11.20;99.90;;;;;;5093734;28;20030;-64
2023/01/07 00:25:08;;;;;;;11.65;6.88;;;11.10;99.90;;;;;;5094785;28;20102;-64
2023/01/07 00:27:33;;;;;;;8.13;6.72;;;11.10;99.90;;;;;;5089785;28;20481;-64
2023/01/07 00:29:59;;;;;;;10.18;7.03;;;11.10;99.90;;;;;;5092966;28;20028;-64
2023/01/07 00:32:46;;;;;;;7.35;6.53;;;11.10;99.90;;;;;;5092369;28;20024;-64
2023/01/07 00:35:21;;;;;;;10.88;6.35;;;11.10;99.90;;;;;;5089795;28;20027;-64
2023/01/07 00:37:51;;;;;;;8.60;6.43;;;11.10;99.90;;;;;;5072924;28;20481;-64
2023/01/07 00:40:17;;;;;;;9.07;6.70;;;11.10;99.90;;;;;;5090799;28;20107;-64
2023/01/07 00:43:00;;;;;;;8.27;6.07;;;11.10;99.90;;;;;;5071435;28;20032;-64
2023/01/07 00:45:27;;;;;;;9.63;6.70;;;11.00;99.90;;;;;;5092694;28;20381;-64
2023/01/07 00:47:53;;;;;;;9.85;6.75;;;11.00;99.90;;;;;;5093529;28;20035;-64
2023/01/07 00:50:20;;;;;;;8.02;6.82;;;11.10;99.90;;;;;;5071115;28;20024;-64
2023/01/07 00:52:45;;;;;;;8.05;6.18;;;11.10;99.90;;;;;;5092509;28;20127;-64
2023/01/07 00:55:13;;;;;;;8.20;6.82;;;11.00;99.90;;;;;;5089594;28;20509;-64
2023/01/07 00:57:39;;;;;;;10.77;7.57;;;11.00;99.90;;;;;;5089429;28;20024;-64
2023/01/07 01:00:06;;;;;;;9.95;7.22;;;11.00;99.90;;;;;;5090394;28;20032;-64
2023/01/07 01:02:31;;;;;;;12.02;7.50;;;11.00;99.90;;;;;;5089786;28;20089;-64
2023/01/07 01:04:57;;;;;;;11.02;8.02;;;11.00;99.90;;;;;;5097110;28;20403;-64
2023/01/07 01:07:22;;;;;;;11.90;8.27;;;11.00;99.90;;;;;;5111035;28;20496;-64
2023/01/07 01:09:48;;;;;;;12.07;7.35;;;11.00;99.90;;;;;;5096797;28;20055;-64
2023/01/07 01:12:14;;;;;;;8.73;7.18;;;11.00;99.90;;;;;;5075822;28;20020;-64
2023/01/07 01:14:39;;;;;;;8.55;7.25;;;11.00;99.90;;;;;;5120488;27;20032;-64
2023/01/07 01:17:04;;;;;;;10.30;8.13;;;11.10;99.90;;;;;;5107241;28;20027;-64
2023/01/07 01:19:30;;;;;;;9.70;6.75;;;11.10;99.90;;;;;;5075250;28;20461;-64
2023/01/07 01:21:55;;;;;;;10.88;6.40;;;11.10;99.90;;;;;;5096626;28;20046;-64
2023/01/07 01:24:21;;;;;;;8.40;5.78;;;11.10;99.90;;;;;;5092895;28;20020;-64
2023/01/07 01:26:47;;;;;;;9.45;6.93;;;11.10;99.90;;;;;;5081021;28;20027;-64
2023/01/07 01:29:12;;;;;;;7.68;6.38;;;11.10;99.90;;;;;;5093027;28;20085;-64
2023/01/07 01:31:38;;;;;;;8.77;7.25;;;11.10;99.90;;;;;;5097220;28;20075;-64
2023/01/07 01:34:03;;;;;;;10.07;6.40;;;11.00;99.90;;;;;;5096538;28;20088;-64
2023/01/07 01:36:29;;;;;;;10.73;6.63;;;11.00;99.90;;;;;;5097986;28;20055;-64
2023/01/07 01:38:55;;;;;;;7.97;6.32;;;11.00;99.90;;;;;;5076803;28;20055;-64
2023/01/07 01:41:21;;;;;;;9.90;5.80;;;10.90;99.90;;;;;;5092467;28;20016;-64
2023/01/07 01:43:46;;;;;;;8.10;5.85;;;10.90;99.90;;;;;;5095311;28;20519;-64
2023/01/07 01:46:14;;;;;;;8.75;6.25;;;10.80;99.90;;;;;;5092565;28;20039;-64
2023/01/07 01:48:46;;;;;;;9.35;6.40;;;10.80;99.90;;;;;;5096387;28;20028;-64
2023/01/07 01:51:14;;;;;;;8.98;6.32;;;10.80;99.90;;;;;;5092491;28;20478;-64
2023/01/07 01:53:39;;;;;;;9.75;6.18;;;10.70;99.90;;;;;;5074765;28;20032;-64
2023/01/07 01:56:16;;;;;;;9.48;6.00;;;10.70;99.90;;;;;;5094080;28;20495;-64
2023/01/07 01:59:12;;;;;;;8.38;5.60;;;10.70;99.90;;;;;;5092213;28;20412;-64
2023/01/07 02:01:38;;;;;;;9.63;5.85;;;10.70;99.90;;;;;;5071301;28;20043;-64
2023/01/07 02:04:10;;;;;;;6.57;5.55;;;10.70;99.90;;;;;;5077136;28;20020;-64
2023/01/07 02:06:41;;;;;;;7.30;5.45;;;10.70;99.90;;;;;;5091711;28;20039;-64
2023/01/07 02:09:09;;;;;;;10.20;5.88;;;10.60;99.90;;;;;;5096796;28;20119;-64
2023/01/07 02:11:41;;;;;;;7.75;5.78;;;10.60;99.90;;;;;;5097778;28;20485;-64
2023/01/07 02:14:43;;;;;;;10.82;6.47;;;10.60;99.90;;;;;;5074924;28;20473;-64
2023/01/07 02:17:47;;;;;;;7.90;6.10;;;10.60;99.90;;;;;;5096972;28;20016;-64
2023/01/07 02:20:40;;;;;;;9.65;5.72;;;10.60;99.90;;;;;;5094797;28;20051;-64
2023/01/07 02:23:22;;;;;;;9.68;6.07;;;10.50;99.90;;;;;;5117932;27;20051;-64
2023/01/07 02:26:03;;;;;;;11.13;6.45;;;10.50;99.90;;;;;;5097468;28;20027;-64
2023/01/07 02:29:06;;;;;;;9.38;6.10;;;10.50;99.90;;;;;;5094231;28;20027;-64
2023/01/07 02:31:49;;;;;;;7.13;5.60;;;10.50;99.90;;;;;;5091974;28;20027;-64
2023/01/07 02:34:26;;;;;;;9.18;6.18;;;10.50;99.90;;;;;;5091677;28;20103;-64
2023/01/07 02:37:07;;;;;;;9.05;5.70;;;10.40;99.90;;;;;;5091695;28;20039;-64
2023/01/07 02:39:50;;;;;;;9.93;5.88;;;10.40;99.90;;;;;;5092022;28;20012;-64
2023/01/07 02:42:26;;;;;;;10.20;5.82;;;10.40;99.90;;;;;;5091642;28;20531;-64
2023/01/07 02:45:09;;;;;;;8.18;5.30;;;10.40;99.90;;;;;;5074054;28;20427;-64
2023/01/07 02:47:46;;;;;;;9.68;6.20;;;10.40;99.90;;;;;;5093868;28;20024;-64
2023/01/07 02:50:12;;;;;;;8.35;5.90;;;10.40;99.90;;;;;;5086098;28;20074;-64
2023/01/07 02:52:37;;;;;;;8.98;5.45;;;10.40;99.90;;;;;;5093712;28;20308;-64
2023/01/07 02:55:08;;;;;;;9.13;5.45;;;10.30;99.90;;;;;;5078705;28;20068;-64
2023/01/07 02:57:52;;;;;;;11.80;6.32;;;10.40;99.90;;;;;;5091297;28;20057;-64
2023/01/07 03:00:25;;;;;;;8.52;5.88;;;10.30;99.90;;;;;;5075237;28;20555;-64
2023/01/07 03:03:26;;;;;;;14.25;6.45;;;10.30;99.90;;;;;;5094006;28;20055;-64
2023/01/07 03:06:14;;;;;;;9.10;5.47;;;10.30;99.90;;;;;;5067257;28;20093;-64
2023/01/07 03:08:46;;;;;;;8.02;5.32;;;10.20;99.90;;;;;;5093422;28;20181;-64
2023/01/07 03:11:12;;;;;;;7.85;5.63;;;10.20;99.90;;;;;;5093767;28;20499;-64
2023/01/07 03:13:46;;;;;;;8.90;5.78;;;10.20;99.90;;;;;;5091545;28;20032;-64
2023/01/07 03:16:18;;;;;;;8.25;5.30;;;10.20;99.90;;;;;;5070489;28;20027;-64
2023/01/07 03:18:54;;;;;;;8.18;5.25;;;10.30;99.90;;;;;;5081502;28;20477;-64
2023/01/07 03:21:23;;;;;;;7.03;4.95;;;10.30;99.90;;;;;;5090302;28;20481;-64
2023/01/07 03:23:53;;;;;;;6.20;5.55;;;10.30;99.90;;;;;;5091207;28;20024;-64
2023/01/07 03:26:24;;;;;;;9.65;5.50;;;10.30;99.90;;;;;;5090493;28;20050;-64
2023/01/07 03:28:50;;;;;;;7.63;5.40;;;10.30;99.90;;;;;;5092379;28;20019;-64
2023/01/07 03:31:19;;;;;;;11.25;6.00;;;10.20;99.90;;;;;;5091738;28;20174;-64
2023/01/07 03:33:56;;;;;;;7.50;4.72;;;10.20;99.90;;;;;;5095606;28;20020;-64
2023/01/07 03:36:28;;;;;;;6.95;5.00;;;10.20;99.90;;;;;;5088237;28;20043;-64
2023/01/07 03:38:55;;;;;;;6.18;4.10;;;10.20;99.90;;;;;;5077873;28;20023;-64
2023/01/07 03:44:05;;;;;;;6.22;4.40;;;10.10;99.90;;;;;;5087977;28;20455;-64
2023/01/07 03:46:32;;;;;;;7.00;4.35;;;10.10;99.90;;;;;;5092597;28;20020;-64
2023/01/07 03:48:57;;;;;;;10.38;5.43;;;10.10;99.90;;;;;;5087802;28;20090;-64
2023/01/07 03:51:23;;;;;;;8.60;4.72;;;10.10;99.90;;;;;;5087732;28;20032;-64
2023/01/07 03:53:48;;;;;;;6.82;4.70;;;10.10;99.90;;;;;;5091840;28;20500;-64
2023/01/07 03:56:14;;;;;;;8.60;4.88;;;10.10;99.90;;;;;;5078854;28;20020;-64
2023/01/07 03:58:39;;;;;;;7.35;4.10;;;10.10;99.90;;;;;;5091671;28;20102;-64
2023/01/07 04:01:05;;;;;;;7.15;4.40;;;10.10;99.90;;;;;;5100070;28;20027;-64
2023/01/07 04:03:30;;;;;;;6.45;3.80;;;10.00;99.90;;;;;;5087910;28;20443;-64
2023/01/07 04:05:56;;;;;;;8.45;4.35;;;10.00;99.90;;;;;;5069623;28;20054;-64
2023/01/07 04:08:21;;;;;;;6.55;4.30;;;10.10;99.90;;;;;;5090213;28;20414;-64
2023/01/07 04:10:47;;;;;;;7.18;4.20;;;10.00;99.90;;;;;;5089328;28;20077;-64
2023/01/07 04:13:12;;;;;;;6.00;4.30;;;10.10;99.90;;;;;;5093377;28;20054;-64
2023/01/07 04:15:38;;;;;;;7.15;4.03;;;10.00;99.90;;;;;;5088611;28;20020;-64
2023/01/07 04:18:03;;;;;;;4.03;3.63;;;10.00;99.90;;;;;;5087787;28;20106;-64
2023/01/07 04:20:29;;;;;;;7.00;4.03;;;10.10;99.90;;;;;;5096047;28;20020;-64
2023/01/07 04:22:54;;;;;;;7.03;4.20;;;10.00;99.90;;;;;;5089676;28;20059;-64
2023/01/07 04:25:20;;;;;;;8.48;4.15;;;10.10;99.90;;;;;;5092140;28;20046;-64
2023/01/07 04:27:45;;;;;;;5.82;3.42;;;10.10;99.90;;;;;;5091890;28;20059;-64
2023/01/07 04:30:11;;;;;;;5.13;3.60;;;10.10;99.90;;;;;;5083307;28;20038;-64
2023/01/07 04:32:37;;;;;;;7.65;3.88;;;10.10;99.90;;;;;;5091014;28;20417;-64
2023/01/07 04:35:02;;;;;;;9.70;3.67;;;10.20;99.90;;;;;;5092222;28;20413;-64
2023/01/07 04:37:28;;;;;;;7.90;3.60;;;10.20;99.90;;;;;;5089475;28;20027;-64
2023/01/07 04:39:53;;;;;;;5.20;3.55;;;10.20;99.90;;;;;;5097546;28;20020;-64
2023/01/07 04:42:19;;;;;;;6.10;3.28;;;10.20;99.90;;;;;;5082551;28;20024;-64
2023/01/07 04:44:45;;;;;;;8.55;3.53;;;10.20;99.90;;;;;;5096507;28;20032;-64
2023/01/07 04:47:10;;;;;;;6.28;3.38;;;10.30;99.90;;;;;;5094775;28;20055;-64
2023/01/07 04:49:35;;;;;;;8.57;3.60;;;10.30;99.90;;;;;;5081220;28;20077;-64
2023/01/07 04:52:02;;;;;;;7.25;3.45;;;10.30;99.90;;;;;;5082839;28;20499;-64
2023/01/07 04:54:28;;;;;;;4.38;3.28;;;10.30;99.90;;;;;;5075915;28;20028;-64
2023/01/07 04:56:53;;;;;;;5.90;3.15;;;10.30;99.90;;;;;;5093550;28;20023;-64
2023/01/07 04:59:19;;;;;;;5.07;2.80;;;10.30;99.90;;;;;;5101675;28;20020;-64
2023/01/07 05:01:44;;;;;;;5.28;3.08;;;10.30;99.90;;;;;;5093718;28;20024;-64
2023/01/07 05:04:10;;;;;;;5.30;3.28;;;10.30;99.90;;;;;;5075735;28;20058;-64
2023/01/07 05:06:35;;;;;;;3.88;2.90;;;10.40;99.90;;;;;;5093417;28;21315;-64
2023/01/07 05:09:01;;;;;;;6.55;3.28;;;10.40;99.90;;;;;;5093749;28;20048;-64
2023/01/07 05:11:26;;;;;;;4.07;2.88;;;10.40;99.90;;;;;;5091166;28;20032;-64
2023/01/07 05:13:52;;;;;;;5.85;2.95;;;10.40;99.90;;;;;;5092579;28;20058;-64
2023/01/07 05:16:17;;;;;;;4.13;2.70;;;10.50;99.90;;;;;;5094215;28;20855;-64
2023/01/07 05:18:43;;;;;;;6.85;3.33;;;10.50;99.90;;;;;;5077875;28;20536;-64
2023/01/07 05:21:09;;;;;;;7.22;2.78;;;10.50;99.90;;;;;;5092113;28;20016;-64
2023/01/07 05:23:35;;;;;;;3.97;2.65;;;10.50;99.90;;;;;;5112966;27;20027;-64
2023/01/07 05:26:00;;;;;;;3.83;3.03;;;10.50;99.90;;;;;;5096622;28;20032;-64
2023/01/07 05:28:26;;;;;;;5.38;2.78;;;10.50;99.90;;;;;;5093140;28;20153;-64
2023/01/07 05:30:51;;;;;;;5.68;3.17;;;10.50;99.90;;;;;;5093101;28;20046;-64
2023/01/07 05:33:17;;;;;;;4.75;2.40;;;10.50;99.90;;;;;;5090576;28;20055;-64
2023/01/07 05:35:42;;;;;;;8.75;2.63;;;10.50;99.90;;;;;;5080145;28;20068;-64
2023/01/07 05:38:08;;;;;;;3.47;2.38;;;10.50;99.90;;;;;;5097993;28;20024;-64
2023/01/07 05:40:33;;;;;;;7.38;3.38;;;10.50;99.90;;;;;;5092183;28;20052;-64
2023/01/07 05:42:59;;;;;;;5.22;3.10;;;10.50;99.90;;;;;;5089305;28;20058;-64
2023/01/07 05:45:25;;;;;;;4.25;2.47;;;10.50;99.90;;;;;;5096245;28;20059;-64
2023/01/07 05:47:50;;;;;;;4.43;2.30;;;10.50;99.90;;;;;;5092829;28;20074;-64
2023/01/07 05:50:16;;;;;;;6.95;2.72;;;10.50;99.90;;;;;;5074573;28;20032;-64
2023/01/07 05:52:42;;;;;;;5.18;2.83;;;10.50;99.90;;;;;;5080530;28;20020;-64
2023/01/07 05:55:07;;;;;;;5.15;2.58;;;10.50;99.90;;;;;;5080689;28;20028;-64
2023/01/07 05:57:33;;;;;;;3.50;2.70;;;10.50;99.90;;;;;;5093735;28;20023;-64
2023/01/07 05:59:58;;;;;;;4.68;3.08;;;10.50;99.90;;;;;;5091482;28;20032;-64
2023/01/07 06:02:24;;;;;;;4.05;2.40;;;10.50;99.90;;;;;;5092655;28;20070;-64
2023/01/07 06:04:49;;;;;;;6.85;2.75;;;10.50;99.90;;;;;;5097062;28;20024;-64
2023/01/07 06:07:15;;;;;;;4.57;2.10;;;10.50;99.90;;;;;;5091137;28;20414;-64
2023/01/07 06:09:40;;;;;;;5.75;2.60;;;10.50;99.90;;;;;;5076675;28;20024;-64
2023/01/07 06:12:06;;;;;;;5.43;2.97;;;10.50;99.90;;;;;;5089811;28;20028;-64
2023/01/07 06:14:32;;;;;;;3.70;2.15;;;10.50;99.90;;;;;;5094642;28;20020;-64
2023/01/07 06:16:58;;;;;;;4.18;2.03;;;10.50;99.90;;;;;;5095134;28;20024;-64
2023/01/07 06:19:25;;;;;;;6.65;2.28;;;10.50;99.90;;;;;;5092168;28;20027;-64
2023/01/07 06:21:50;;;;;;;3.97;2.63;;;10.50;99.90;;;;;;5093047;28;20027;-64
2023/01/07 06:24:16;;;;;;;5.07;2.15;;;10.50;99.90;;;;;;5092296;28;20024;-64
2023/01/07 06:26:41;;;;;;;2.90;2.08;;;10.50;99.90;;;;;;5097608;28;20035;-64
2023/01/07 06:29:07;;;;;;;5.30;2.17;;;10.50;99.90;;;;;;5086758;28;20028;-64
2023/01/07 06:31:32;;;;;;;2.75;1.77;;;10.50;99.90;;;;;;5100781;28;20134;-64
2023/01/07 06:33:58;;;;;;;3.80;2.00;;;10.50;99.90;;;;;;5104780;28;20376;-64
2023/01/07 06:36:23;;;;;;;2.90;2.15;;;10.60;99.90;;;;;;5099790;28;20496;-64
2023/01/07 06:38:49;;;;;;;2.63;1.52;;;10.60;99.90;;;;;;5095361;28;20380;-64
2023/01/07 06:41:15;;;;;;;4.55;1.67;;;10.60;99.90;;;;;;5107989;28;20032;-64
2023/01/07 06:43:40;;;;;;;4.18;1.80;;;10.60;99.90;;;;;;5104156;28;20039;-64
2023/01/07 06:46:06;;;;;;;3.90;1.83;;;10.70;99.90;;;;;;5105765;28;20020;-64
2023/01/07 06:48:31;;;;;;;2.50;1.55;;;10.60;99.90;;;;;;5109600;28;20043;-64
2023/01/07 06:50:57;;;;;;;2.95;1.45;;;10.60;99.90;;;;;;5099521;28;20552;-64
2023/01/07 06:53:22;;;;;;;3.47;1.52;;;10.60;99.90;;;;;;5089789;28;20036;-64
2023/01/07 06:55:49;;;;;;;2.35;1.48;;;10.60;99.90;;;;;;5095589;28;20028;-64
2023/01/07 06:58:15;;;;;;;2.35;1.17;;;10.60;99.90;;;;;;5095437;28;20020;-64
2023/01/07 07:00:41;;;;;;;2.92;1.35;;;10.60;99.90;;;;;;5107500;28;20118;-64
2023/01/07 07:03:06;;;;;;;3.35;1.50;;;10.60;99.90;;;;;;5105169;28;20513;-64
2023/01/07 07:05:33;;;;;;;3.13;1.35;;;10.60;99.90;;;;;;5110753;28;20023;-64
2023/01/07 07:07:59;;;;;;;2.67;1.52;;;10.60;99.90;;;;;;5103702;27;20048;-64
2023/01/07 07:10:25;;;;;;;3.15;1.25;;;10.60;99.90;;;;;;5087701;28;20023;-64
2023/01/07 07:12:52;;;;;;;3.50;1.20;;;10.60;99.90;;;;;;5104820;28;20040;-64
2023/01/07 07:15:18;;;;;;;2.35;1.23;;;10.60;99.90;;;;;;5102779;28;20034;-64
2023/01/07 07:17:44;;;;;;;1.88;1.00;;;10.60;99.90;;;;;;5080639;28;20432;-64
2023/01/07 07:20:11;;;;;;;4.88;1.20;;;10.60;99.90;;;;;;5110542;28;20019;-64
2023/01/07 07:22:36;;;;;;;2.13;1.00;;;10.60;99.90;;;;;;5109228;28;20030;-64
2023/01/07 07:25:02;;;;;;;2.50;1.15;;;10.60;99.90;;;;;;5106205;27;20028;-64
2023/01/07 07:27:28;;;;;;;4.20;1.23;;;10.60;99.90;;;;;;5108170;28;20033;-64
2023/01/07 07:29:53;;;;;;;2.45;1.08;;;10.60;99.90;;;;;;5109975;28;20103;-64
2023/01/07 07:32:19;;;;;;;2.17;1.13;;;10.60;99.90;;;;;;5125057;27;20039;-64
2023/01/07 07:34:44;;;;;;;3.65;1.23;;;10.60;99.90;;;;;;5122098;27;20027;-64
2023/01/07 07:37:10;;;;;;;2.33;1.30;;;10.60;99.90;;;;;;5107920;28;20020;-64
2023/01/07 07:39:36;;;;;;;3.08;1.10;;;10.60;99.90;;;;;;5109570;28;20015;-64
2023/01/07 07:42:03;;;;;;;1.65;1.00;;;10.60;99.90;;;;;;5075338;28;20369;-64
2023/01/07 07:44:29;;;;;;;1.40;0.90;;;10.60;99.90;;;;;;5079329;28;20028;-64
2023/01/07 07:46:54;;;;;;;3.63;1.45;;;10.50;99.90;;;;;;5110207;28;20035;-64
2023/01/07 07:49:20;;;;;;;2.65;0.80;;;10.50;99.90;;;;;;5105514;28;20020;-64
2023/01/07 07:51:45;;;;;;;1.90;0.80;;;10.50;99.90;;;;;;5104212;28;20370;-64
2023/01/07 07:54:11;;;;;;;3.00;1.20;;;10.50;99.90;;;;;;5106557;28;20028;-64
2023/01/07 07:56:36;;;;;;;2.15;0.93;;;10.50;99.90;;;;;;5105350;28;20118;-64
2023/01/07 07:59:02;;;;;;;1.67;0.80;;;10.50;99.90;;;;;;5104988;28;20087;-64
2023/01/07 08:01:27;;;;;;;1.58;0.80;;;10.50;99.90;;;;;;5105289;28;20526;-64
2023/01/07 08:03:53;;;;;;;2.80;0.90;;;10.50;99.90;;;;;;5086827;28;20036;-64
2023/01/07 08:06:18;;;;;;;3.38;0.90;;;10.50;99.90;;;;;;5108078;28;20020;-64
2023/01/07 08:08:44;;;;;;;3.80;0.82;;;10.50;99.90;;;;;;5105797;28;20435;-64
2023/01/07 08:11:09;;;;;;;2.33;0.90;;;10.50;99.90;;;;;;5107943;28;20111;-64
2023/01/07 08:13:35;;;;;;;2.85;1.20;;;10.50;99.90;;;;;;5098152;28;20160;-64
2023/01/07 08:16:00;;;;;;;3.08;1.90;;;10.40;99.90;;;;;;5097870;28;20485;-64
2023/01/07 08:18:26;;;;;;;2.30;0.88;;;10.40;99.90;;;;;;5074736;28;20112;-64
2023/01/07 08:20:51;;;;;;;1.55;0.80;;;10.50;99.90;;;;;;5112535;28;20015;-64
2023/01/07 08:23:17;;;;;;;1.70;0.95;;;10.50;99.90;;;;;;5097131;28;20481;-64
2023/01/07 08:25:43;;;;;;;2.42;0.93;;;10.50;99.90;;;;;;5113907;28;20237;-64
2023/01/07 08:28:09;;;;;;;1.55;1.20;;;10.50;99.90;;;;;;5109236;28;20024;-64
2023/01/07 08:30:35;;;;;;;4.57;0.95;;;10.50;99.90;;;;;;5090383;28;20028;-64
2023/01/07 08:33:03;;;;;;;2.65;0.90;;;10.50;99.90;;;;;;5102341;28;20042;-64
2023/01/07 08:35:29;;;;;;;2.70;1.30;;;10.50;99.90;;;;;;5109612;28;20119;-64
2023/01/07 08:38:02;;;;;;;3.22;1.25;;;10.50;99.90;;;;;;5104775;28;20107;-64
2023/01/07 08:40:28;;;;;;;3.13;1.02;;;10.50;99.90;;;;;;5096815;28;20036;-64
2023/01/07 08:42:57;;;;;;;3.85;1.25;;;10.60;99.90;;;;;;5106516;28;20078;-64
2023/01/07 08:45:23;;;;;;;4.55;1.38;;;10.50;99.90;;;;;;5110456;28;20019;-64
2023/01/07 08:47:48;;;;;;;3.60;1.33;;;10.50;99.90;;;;;;5078082;28;20401;-64
2023/01/07 08:50:14;;;;;;;3.22;1.20;;;10.60;99.90;;;;;;5104476;28;20035;-64
2023/01/07 08:52:39;;;;;;;2.78;1.30;;;10.60;99.90;;;;;;5111061;28;20032;-64
2023/01/07 08:55:05;;;;;;;1.90;0.90;;;10.60;99.90;;;;;;5110115;28;20024;-64
2023/01/07 08:57:31;;;;;;;1.77;1.00;;;10.70;99.90;;;;;;5100897;28;20016;-64
2023/01/07 08:59:56;;;;;;;1.75;1.05;;;10.70;99.90;;;;;;5113563;28;20362;-64
2023/01/07 09:02:22;;;;;;;1.58;1.00;;;10.70;99.90;;;;;;5105015;28;20031;-64
2023/01/07 09:04:47;;;;;;;1.73;0.85;;;10.70;99.90;;;;;;5107551;28;20051;-64
2023/01/07 09:07:13;;;;;;;1.60;0.80;;;10.70;99.90;;;;;;5105671;28;20028;-64
2023/01/07 09:09:38;;;;;;;3.08;1.00;;;10.70;99.90;;;;;;5110379;28;20046;-64
2023/01/07 09:12:05;;;;;;;2.42;0.80;;;10.80;99.90;;;;;;5084119;28;20020;-64
2023/01/07 09:14:31;;;;;;;4.68;1.10;;;10.80;99.90;;;;;;5112797;28;20024;-64
2023/01/07 09:16:56;;;;;;;2.15;0.88;;;10.70;99.90;;;;;;5089350;28;20065;-64
2023/01/07 09:19:22;;;;;;;2.28;1.13;;;10.80;99.90;;;;;;5080740;28;20024;-64
2023/01/07 09:21:50;;;;;;;4.05;2.15;;;10.80;99.90;;;;;;5081743;28;20035;-64
2023/01/07 09:24:16;;;;;;;4.63;1.50;;;10.80;99.90;;;;;;5114629;28;20518;-64
2023/01/07 09:26:42;;;;;;;2.33;1.60;;;10.80;99.90;;;;;;5098021;28;20023;-64
2023/01/07 09:29:08;;;;;;;1.80;1.10;;;10.80;99.90;;;;;;5102502;28;20023;-64
2023/01/07 09:31:33;;;;;;;1.90;0.93;;;10.80;99.90;;;;;;5100364;27;20034;-64
2023/01/07 09:33:59;;;;;;;2.92;1.42;;;10.80;99.90;;;;;;5096856;28;20031;-64
2023/01/07 09:36:25;;;;;;;2.83;0.95;;;10.80;99.90;;;;;;5101044;28;20022;-63
2023/01/07 09:38:51;;;;;;;2.22;1.08;;;10.80;99.90;;;;;;5114938;28;20027;-64
2023/01/07 09:41:41;;;;;;;3.40;1.20;;;10.90;99.90;;;;;;5094948;28;20077;-64
2023/01/07 09:44:43;;;;;;;2.70;1.00;;;10.90;99.90;;;;;;5111007;28;20011;-64
2023/01/07 09:47:13;;;;;;;2.22;0.73;;;10.90;99.90;;;;;;5112575;28;20028;-64
2023/01/07 09:49:40;;;;;;;2.72;1.00;;;10.90;99.90;;;;;;5104009;28;20145;-64
2023/01/07 09:52:24;;;;;;;3.22;1.02;;;10.90;99.90;;;;;;5106852;28;20084;-64
2023/01/07 09:54:58;;;;;;;1.58;0.90;;;10.90;99.90;;;;;;5102679;28;20023;-64
2023/01/07 09:57:26;;;;;;;1.80;0.80;;;10.90;99.90;;;;;;5094577;28;20016;-64
2023/01/07 09:59:52;;;;;;;2.08;0.77;;;11.00;99.90;;;;;;5099802;28;20012;-64
2023/01/07 10:03:00;;;;;;;1.23;0.75;;;11.00;99.90;;;;;;5104567;28;20023;-64
2023/01/07 10:05:30;;;;;;;1.20;0.60;;;11.00;99.90;;;;;;5106457;28;20026;-64
2023/01/07 10:08:14;;;;;;;2.67;1.15;;;11.10;99.90;;;;;;5074930;28;20044;-64
2023/01/07 10:10:45;;;;;;;2.22;0.90;;;11.10;99.90;;;;;;5103367;28;20015;-64
2023/01/07 10:13:36;;;;;;;1.33;0.70;;;11.00;99.90;;;;;;5099142;28;20035;-64
2023/01/07 10:16:22;;;;;;;1.50;0.70;;;11.10;99.90;;;;;;5100898;28;20024;-64
2023/01/07 10:18:50;;;;;;;3.00;1.30;;;11.20;99.90;;;;;;5093841;28;20051;-64
2023/01/07 10:21:41;;;;;;;1.25;0.60;;;11.20;99.90;;;;;;5078716;28;20016;-64
2023/01/07 10:24:18;;;;;;;1.90;1.10;;;11.20;99.90;;;;;;5114198;28;20077;-64
2023/01/07 10:26:48;;;;;;;4.35;1.35;;;11.30;99.90;;;;;;5113927;28;20035;-64
2023/01/07 10:29:49;;;;;;;2.70;0.82;;;11.50;99.90;;;;;;5094473;28;20077;-64
2023/01/07 10:32:21;;;;;;;3.85;0.90;;;11.80;99.90;;;;;;5090493;28;20111;-64
2023/01/07 10:34:49;;;;;;;3.17;1.10;;;12.20;99.90;;;;;;5103610;28;20420;-64
2023/01/07 10:37:14;;;;;;;1.27;0.85;;;12.40;99.90;;;;;;5111352;28;20030;-64
2023/01/07 10:39:51;;;;;;;1.58;0.82;;;12.60;99.90;;;;;;5109049;28;20011;-64
2023/01/07 10:42:57;;;;;;;1.70;1.08;;;12.70;99.90;;;;;;5087760;28;20444;-64
2023/01/07 10:45:47;;;;;;;4.00;1.08;;;12.90;99.90;;;;;;5110719;28;20031;-64
2023/01/07 10:48:42;;;;;;;1.55;0.93;;;12.90;99.90;;;;;;5090959;28;20441;-64
2023/01/07 10:51:49;;;;;;;2.28;1.38;;;12.90;99.90;;;;;;5104480;28;20059;-64
2023/01/07 10:54:50;;;;;;;4.35;1.20;;;12.90;99.50;;;;;;5024622;28;20039;-64
2023/01/07 10:57:24;;;;;;;1.83;0.90;;;13.00;99.70;;;;;;5029598;28;20033;-64
2023/01/07 10:59:52;;;;;;;1.80;0.93;;;13.20;99.00;;;;;;5062012;28;20036;-64
2023/01/07 11:02:20;;;;;;;3.78;1.00;;;13.30;97.60;;;;;;5100864;28;20027;-64
2023/01/07 11:04:46;;;;;;;1.75;0.95;;;13.40;97.30;;;;;;5093192;28;20024;-64
2023/01/07 11:07:30;;;;;;;6.93;0.98;;;13.50;96.90;;;;;;5107149;28;20042;-64
2023/01/07 11:10:00;;;;;;;1.65;0.75;;;13.50;95.80;;;;;;5095749;28;20492;-63
2023/01/07 11:12:46;;;;;;;1.23;0.70;;;13.20;96.00;;;;;;5092909;28;20095;-63
2023/01/07 11:15:29;;;;;;;2.95;0.90;;;13.10;96.30;;;;;;5113043;28;20015;-64
2023/01/07 11:18:04;;;;;;;1.00;0.80;;;13.00;96.50;;;;;;5112656;28;20531;-64
2023/01/07 11:20:49;;;;;;;1.25;0.70;;;13.10;96.80;;;;;;5111203;28;20136;-64
2023/01/07 11:23:42;;;;;;;2.47;0.95;;;13.40;95.60;;;;;;5107798;28;20024;-64
2023/01/07 11:26:22;;;;;;;1.50;0.70;;;13.60;95.30;;;;;;5106027;28;20051;-64
2023/01/07 11:28:56;;;;;;;2.10;1.02;;;13.80;94.10;;;;;;5108502;28;20073;-64
2023/01/07 11:31:42;;;;;;;4.95;0.80;;;13.70;93.60;;;;;;5107309;28;20035;-64
2023/01/07 11:34:38;;;;;;;2.88;0.80;;;13.50;93.70;;;;;;5108365;28;20110;-64
2023/01/07 11:37:04;;;;;;;0.93;0.52;;;13.50;94.40;;;;;;5107262;28;20016;-64
2023/01/07 11:39:33;;;;;;;1.65;0.80;;;13.40;94.00;;;;;;5118721;27;20468;-64
2023/01/07 11:45:18;;;;;;;2.15;1.15;;;13.00;94.10;;;;;;5086286;28;20107;-64
2023/01/07 11:48:00;;;;;;;1.13;0.68;;;12.80;95.10;;;;;;5107943;28;20020;-64
2023/01/07 11:50:37;;;;;;;1.55;0.70;;;12.70;95.00;;;;;;5110557;28;20386;-63
2023/01/07 11:53:15;;;;;;;1.42;0.70;;;12.70;95.00;;;;;;5100564;28;20223;-64
2023/01/07 11:56:03;;;;;;;2.10;0.85;;;12.80;95.50;;;;;;5087049;28;20489;-64
2023/01/07 11:58:32;;;;;;;1.88;0.80;;;13.10;95.00;;;;;;5108604;28;20043;-64
2023/01/07 12:01:07;;;;;;;1.92;0.80;;;13.60;94.90;;;;;;5100997;28;20035;-64
2023/01/07 12:03:57;;;;;;;1.20;0.60;;;14.30;93.00;;;;;;5112559;28;20023;-64
2023/01/07 12:06:34;;;;;;;0.95;0.63;;;15.10;91.90;;;;;;5082775;28;20040;-64
2023/01/07 12:09:14;;;;;;;1.63;0.70;;;15.60;86.50;;;;;;5111801;28;20101;-64
2023/01/07 12:11:42;;;;;;;1.67;0.75;;;15.50;85.50;;;;;;5098700;28;20031;-64
2023/01/07 12:14:26;;;;;;;1.13;0.70;;;15.80;84.30;;;;;;5111687;28;20019;-64
2023/01/07 12:16:55;;;;;;;1.55;0.70;;;16.10;80.70;;;;;;5101830;28;20016;-64
2023/01/07 12:19:42;;;;;;;1.80;0.70;;;16.40;80.50;;;;;;5092100;28;20027;-64
2023/01/07 12:22:19;;;;;;;1.55;0.65;;;16.50;77.80;;;;;;5108809;28;20103;-64
2023/01/07 12:24:57;;;;;;;1.20;0.73;;;16.40;77.40;;;;;;5105676;28;20032;-64
2023/01/07 12:27:33;;;;;;;1.38;0.60;;;16.50;78.90;;;;;;5106999;28;20500;-64
2023/01/07 12:30:32;;;;;;;1.60;0.80;;;16.80;75.10;;;;;;5108902;28;20066;-64
2023/01/07 12:32:57;;;;;;;1.40;0.70;;;16.80;76.00;;;;;;5095339;28;20074;-64
2023/01/07 12:35:35;;;;;;;2.75;0.70;;;16.60;74.50;;;;;;5109080;28;20043;-64
2023/01/07 12:38:24;;;;;;;1.25;0.80;;;16.20;74.60;;;;;;5108445;28;20016;-64
2023/01/07 12:41:04;;;;;;;1.90;0.85;;;15.90;76.40;;;;;;5106743;28;20027;-64
2023/01/07 12:43:46;;;;;;;1.10;0.60;;;15.80;75.90;;;;;;5089428;28;20430;-64
2023/01/07 12:46:15;;;;;;;2.03;0.80;;;15.70;77.00;;;;;;5105544;28;20027;-64
2023/01/07 12:48:44;;;;;;;1.48;0.70;;;15.70;76.90;;;;;;5087258;28;20020;-64
2023/01/07 12:51:17;;;;;;;1.30;0.70;;;15.60;75.90;;;;;;5110328;28;20024;-64
2023/01/07 12:53:58;;;;;;;1.58;0.80;;;15.50;78.00;;;;;;5105182;28;20041;-64
2023/01/07 12:56:39;;;;;;;2.03;1.00;;;15.90;78.90;;;;;;5084955;28;20024;-64
2023/01/07 12:59:26;;;;;;;1.20;0.82;;;16.10;74.30;;;;;;5106923;28;20028;-64
2023/01/07 13:02:03;;;;;;;2.03;1.00;;;16.10;75.70;;;;;;5106209;28;20052;-64
2023/01/07 13:04:38;;;;;;;2.97;1.00;;;16.20;74.90;;;;;;5109131;28;20031;-64
2023/01/07 13:07:55;;;;;;;1.50;1.00;;;16.30;73.90;;;;;;5109454;28;20047;-64
2023/01/07 13:10:32;;;;;;;1.85;0.98;;;16.00;75.20;;;;;;5044180;28;20054;-64